createdAt,value
2017-12-27T00:00:10.705Z,2.90
2017-12-27T00:02:37.554Z,2.62
2017-12-27T00:05:04.378Z,2.50
2017-12-27T00:07:31.244Z,2.35
2017-12-27T00:09:58.082Z,2.78
2017-12-27T00:12:24.925Z,2.70
2017-12-27T00:14:51.782Z,2.78
2017-12-27T00:17:18.626Z,2.90
2017-12-27T00:19:45.662Z,2.80
2017-12-27T00:22:12.527Z,2.92
2017-12-27T00:24:39.330Z,2.90
2017-12-27T00:27:06.130Z,3.30
2017-12-27T00:29:32.949Z,3.00
2017-12-27T00:31:59.751Z,3.10
2017-12-27T00:34:26.597Z,3.40
2017-12-27T00:36:53.473Z,3.30
2017-12-27T00:39:20.291Z,3.70
2017-12-27T00:41:47.118Z,3.10
2017-12-27T00:44:13.949Z,3.60
2017-12-27T00:46:40.782Z,3.20
2017-12-27T00:49:07.841Z,3.25
2017-12-27T00:51:34.694Z,3.00
2017-12-27T00:54:01.531Z,3.15
2017-12-27T00:56:28.682Z,3.00
2017-12-27T00:58:55.522Z,2.90
2017-12-27T01:01:22.569Z,2.90
2017-12-27T01:03:49.366Z,2.70
2017-12-27T01:06:16.197Z,2.70
2017-12-27T01:08:43.316Z,2.35
2017-12-27T01:11:10.460Z,2.60
2017-12-27T01:13:37.611Z,2.45
2017-12-27T01:16:04.466Z,2.45
2017-12-27T01:18:31.267Z,2.53
2017-12-27T01:20:58.447Z,2.20
2017-12-27T01:23:25.604Z,2.30
2017-12-27T01:25:52.637Z,2.40
2017-12-27T01:28:19.496Z,2.30
2017-12-27T01:30:46.319Z,2.20
2017-12-27T01:33:13.146Z,2.35
2017-12-27T01:35:40.322Z,2.20
2017-12-27T01:38:07.474Z,2.07
2017-12-27T01:40:34.306Z,2.10
2017-12-27T01:43:01.150Z,2.10
2017-12-27T01:45:27.965Z,2.00
2017-12-27T01:47:54.818Z,2.00
2017-12-27T01:50:21.998Z,2.10
2017-12-27T01:52:48.831Z,2.00
2017-12-27T01:55:15.991Z,2.00
2017-12-27T01:57:42.850Z,2.08
2017-12-27T02:00:09.685Z,1.90
2017-12-27T02:02:36.827Z,2.40
2017-12-27T02:05:03.686Z,2.17
2017-12-27T02:07:30.489Z,2.00
2017-12-27T02:09:57.291Z,2.50
2017-12-27T02:12:24.125Z,2.20
2017-12-27T02:14:50.925Z,2.30
2017-12-27T02:17:17.720Z,2.30
2017-12-27T02:19:44.582Z,2.70
2017-12-27T02:22:11.422Z,2.20
2017-12-27T02:24:38.517Z,2.50
2017-12-27T02:27:05.667Z,2.50
2017-12-27T02:29:32.818Z,2.60
2017-12-27T02:31:59.630Z,2.50
2017-12-27T02:34:26.493Z,2.47
2017-12-27T02:36:53.655Z,3.10
2017-12-27T02:42:12.769Z,2.50
2017-12-27T02:44:39.881Z,2.70
2017-12-27T02:47:06.705Z,3.00
2017-12-27T02:49:33.556Z,2.80
2017-12-27T02:52:00.402Z,2.80
2017-12-27T02:54:27.467Z,2.70
2017-12-27T02:56:54.724Z,2.45
2017-12-27T02:59:21.581Z,2.70
2017-12-27T03:01:48.390Z,2.60
2017-12-27T03:04:15.449Z,2.40
2017-12-27T03:06:42.314Z,2.37
2017-12-27T03:09:09.150Z,2.75
2017-12-27T03:11:35.982Z,2.40
2017-12-27T03:14:02.846Z,2.30
2017-12-27T03:16:29.674Z,2.28
2017-12-27T03:18:56.551Z,2.30
2017-12-27T03:21:23.446Z,2.15
2017-12-27T03:23:50.241Z,2.30
2017-12-27T03:26:17.053Z,2.10
2017-12-27T03:28:43.926Z,2.00
2017-12-27T03:31:10.720Z,2.30
2017-12-27T03:33:37.550Z,2.28
2017-12-27T03:36:04.399Z,2.10
2017-12-27T03:38:31.228Z,1.70
2017-12-27T03:40:58.312Z,2.10
2017-12-27T03:43:25.167Z,2.10
2017-12-27T03:45:52.256Z,1.95
2017-12-27T03:48:19.347Z,1.90
2017-12-27T03:50:46.202Z,2.03
2017-12-27T03:53:13.002Z,1.80
2017-12-27T03:55:39.850Z,1.93
2017-12-27T03:58:06.727Z,1.80
2017-12-27T04:00:33.516Z,2.00
2017-12-27T04:03:00.323Z,2.20
2017-12-27T04:05:27.458Z,1.80
2017-12-27T04:07:54.279Z,2.20
2017-12-27T04:10:21.076Z,4.63
2017-12-27T04:12:47.958Z,4.20
2017-12-27T04:15:14.752Z,2.10
2017-12-27T04:17:41.874Z,2.05
2017-12-27T04:20:09.017Z,2.13
2017-12-27T04:22:36.065Z,2.08
2017-12-27T04:25:03.093Z,2.20
2017-12-27T04:27:29.927Z,2.10
2017-12-27T04:29:56.742Z,2.20
2017-12-27T04:32:23.538Z,1.98
2017-12-27T04:34:50.365Z,2.10
2017-12-27T04:37:17.437Z,2.00
2017-12-27T04:39:44.274Z,2.50
2017-12-27T04:42:11.131Z,1.98
2017-12-27T04:44:37.933Z,2.42
2017-12-27T04:47:05.012Z,2.22
2017-12-27T04:49:31.851Z,2.33
2017-12-27T04:51:58.911Z,2.30
2017-12-27T04:54:26.068Z,2.60
2017-12-27T04:56:52.896Z,2.70
2017-12-27T04:59:19.709Z,2.40
2017-12-27T05:01:46.843Z,2.80
2017-12-27T05:04:13.662Z,2.90
2017-12-27T05:06:40.465Z,2.47
2017-12-27T05:09:07.310Z,2.62
2017-12-27T05:11:34.472Z,2.80
2017-12-27T05:14:01.303Z,2.60
2017-12-27T05:16:28.093Z,2.90
2017-12-27T05:18:54.950Z,2.78
2017-12-27T05:21:21.749Z,2.75
2017-12-27T05:23:48.558Z,2.50
2017-12-27T05:26:15.398Z,2.92
2017-12-27T05:28:42.239Z,2.90
2017-12-27T05:31:09.066Z,2.75
2017-12-27T05:33:35.918Z,2.62
2017-12-27T05:36:02.747Z,2.78
2017-12-27T05:38:29.853Z,2.72
2017-12-27T05:40:57.003Z,2.95
2017-12-27T05:43:23.832Z,2.90
2017-12-27T05:45:50.637Z,2.60
2017-12-27T05:48:17.732Z,3.10
2017-12-27T05:50:44.881Z,2.80
2017-12-27T05:53:11.728Z,2.60
2017-12-27T05:55:38.541Z,2.87
2017-12-27T05:58:05.613Z,2.70
2017-12-27T06:00:32.660Z,2.70
2017-12-27T06:02:59.809Z,2.70
2017-12-27T06:05:26.642Z,2.95
2017-12-27T06:07:53.466Z,3.05
2017-12-27T06:10:20.289Z,3.00
2017-12-27T06:12:47.122Z,2.97
2017-12-27T06:15:14.235Z,3.03
2017-12-27T06:17:41.061Z,2.83
2017-12-27T06:20:07.857Z,2.58
2017-12-27T06:22:34.967Z,3.00
2017-12-27T06:25:02.126Z,3.20
2017-12-27T06:27:28.954Z,3.20
2017-12-27T06:29:55.782Z,3.00
2017-12-27T06:32:22.886Z,2.97
2017-12-27T06:34:49.714Z,2.90
2017-12-27T06:37:16.542Z,2.80
2017-12-27T06:39:43.395Z,3.10
2017-12-27T06:42:10.238Z,2.70
2017-12-27T06:44:37.069Z,2.70
2017-12-27T06:47:03.946Z,2.50
2017-12-27T06:49:30.782Z,2.83
2017-12-27T06:51:57.589Z,2.60
2017-12-27T06:54:24.455Z,2.50
2017-12-27T06:56:51.490Z,2.60
2017-12-27T06:59:18.305Z,2.47
2017-12-27T07:01:45.171Z,2.70
2017-12-27T07:04:12.006Z,2.50
2017-12-27T07:06:38.813Z,2.67
2017-12-27T07:09:05.641Z,2.20
2017-12-27T07:11:32.475Z,2.40
2017-12-27T07:13:59.281Z,2.50
2017-12-27T07:16:26.183Z,2.70
2017-12-27T07:18:52.998Z,2.50
2017-12-27T07:21:20.131Z,2.40
2017-12-27T07:23:46.986Z,2.70
2017-12-27T07:26:13.817Z,2.40
2017-12-27T07:28:41.583Z,2.47
2017-12-27T07:31:08.437Z,2.60
2017-12-27T07:33:35.258Z,2.60
2017-12-27T07:36:02.313Z,2.80
2017-12-27T07:38:29.461Z,2.25
2017-12-27T07:40:56.261Z,2.60
2017-12-27T07:43:23.069Z,2.30
2017-12-27T07:45:50.424Z,2.40
2017-12-27T07:48:17.221Z,2.50
2017-12-27T07:50:44.399Z,2.50
2017-12-27T07:53:11.222Z,2.40
2017-12-27T07:55:38.066Z,2.10
2017-12-27T07:58:05.125Z,2.30
2017-12-27T08:00:32.283Z,2.50
2017-12-27T08:02:59.338Z,2.30
2017-12-27T08:05:26.133Z,2.00
2017-12-27T08:07:52.961Z,2.50
2017-12-27T08:10:19.771Z,2.28
2017-12-27T08:12:46.602Z,2.00
2017-12-27T08:15:13.781Z,2.20
2017-12-27T08:17:40.805Z,1.90
2017-12-27T08:20:07.610Z,1.90
2017-12-27T08:22:34.429Z,2.10
2017-12-27T08:25:01.237Z,2.03
2017-12-27T08:27:28.381Z,2.20
2017-12-27T08:29:55.623Z,2.30
2017-12-27T08:32:22.501Z,2.17
2017-12-27T08:34:49.332Z,2.25
2017-12-27T08:37:16.198Z,1.95
2017-12-27T08:39:43.277Z,2.10
2017-12-27T08:42:10.103Z,2.20
2017-12-27T08:44:36.925Z,2.40
2017-12-27T08:47:03.767Z,2.20
2017-12-27T08:49:30.890Z,2.00
2017-12-27T08:51:57.738Z,2.00
2017-12-27T08:54:24.567Z,2.10
2017-12-27T08:56:51.374Z,2.10
2017-12-27T08:59:18.461Z,1.87
2017-12-27T09:01:45.619Z,1.80
2017-12-27T09:04:12.415Z,2.00
2017-12-27T09:06:39.977Z,3.60
2017-12-27T09:09:07.062Z,1.87
2017-12-27T09:11:34.114Z,1.70
2017-12-27T09:14:00.994Z,1.90
2017-12-27T09:16:27.836Z,1.90
2017-12-27T09:18:54.950Z,1.98
2017-12-27T09:21:21.805Z,1.70
2017-12-27T09:23:48.837Z,1.80
2017-12-27T09:26:15.666Z,1.70
2017-12-27T09:28:42.829Z,1.90
2017-12-27T09:31:09.629Z,2.00
2017-12-27T09:33:36.429Z,1.85
2017-12-27T09:36:03.261Z,1.50
2017-12-27T09:38:30.078Z,1.70
2017-12-27T09:40:57.149Z,1.55
2017-12-27T09:43:24.297Z,1.60
2017-12-27T09:45:51.347Z,1.70
2017-12-27T09:48:18.394Z,2.00
2017-12-27T09:50:45.233Z,1.65
2017-12-27T09:53:12.263Z,2.22
2017-12-27T09:55:39.170Z,1.90
2017-12-27T09:58:06.054Z,1.83
2017-12-27T10:00:32.902Z,2.00
2017-12-27T10:02:59.705Z,1.90
2017-12-27T10:05:26.562Z,1.80
2017-12-27T10:07:53.653Z,1.90
2017-12-27T10:10:20.491Z,2.00
2017-12-27T10:12:47.338Z,1.90
2017-12-27T10:15:14.204Z,2.20
2017-12-27T10:17:41.034Z,2.30
2017-12-27T10:20:07.890Z,2.00
2017-12-27T10:22:34.681Z,1.90
2017-12-27T10:25:01.478Z,2.00
2017-12-27T10:27:28.335Z,1.90
2017-12-27T10:29:55.451Z,1.60
2017-12-27T10:32:22.279Z,1.90
2017-12-27T10:34:49.138Z,2.10
2017-12-27T10:37:16.361Z,1.80
2017-12-27T10:39:43.718Z,1.60
2017-12-27T10:42:10.867Z,1.87
2017-12-27T10:44:38.018Z,1.98
2017-12-27T10:47:05.270Z,1.80
2017-12-27T10:49:32.730Z,1.60
2017-12-27T10:51:59.877Z,1.50
2017-12-27T10:54:27.336Z,1.70
2017-12-27T10:56:54.690Z,1.90
2017-12-27T10:59:21.843Z,1.80
2017-12-27T11:01:49.094Z,1.90
2017-12-27T11:04:16.552Z,1.80
2017-12-27T11:06:43.803Z,1.60
2017-12-27T11:09:11.060Z,1.90
2017-12-27T11:11:39.026Z,1.90
2017-12-27T11:14:06.271Z,2.00
2017-12-27T11:16:33.159Z,1.63
2017-12-27T11:19:00.305Z,1.80
2017-12-27T11:21:27.222Z,1.95
2017-12-27T11:23:54.021Z,1.75
2017-12-27T11:26:20.851Z,1.80
2017-12-27T11:28:47.977Z,2.08
2017-12-27T11:31:14.782Z,2.00
2017-12-27T11:33:41.662Z,2.00
2017-12-27T11:36:08.453Z,2.30
2017-12-27T11:38:35.493Z,2.00
2017-12-27T11:41:02.321Z,2.33
2017-12-27T11:43:29.134Z,2.42
2017-12-27T11:45:55.983Z,2.10
2017-12-27T11:48:23.344Z,2.17
2017-12-27T11:50:50.941Z,2.20
2017-12-27T11:53:17.757Z,2.10
2017-12-27T11:55:44.900Z,2.00
2017-12-27T11:58:11.761Z,2.30
2017-12-27T12:00:38.586Z,2.20
2017-12-27T12:03:05.730Z,2.00
2017-12-27T12:05:32.534Z,2.20
2017-12-27T12:07:59.727Z,2.20
2017-12-27T12:10:26.556Z,2.20
2017-12-27T12:12:53.378Z,2.20
2017-12-27T12:15:20.430Z,3.55
2017-12-27T12:17:47.785Z,6.80
2017-12-27T12:20:14.590Z,3.83
2017-12-27T12:22:41.707Z,3.30
2017-12-27T12:25:08.863Z,2.97
2017-12-27T12:27:35.711Z,3.00
2017-12-27T12:30:02.513Z,2.40
2017-12-27T12:32:29.589Z,2.50
2017-12-27T12:34:56.419Z,2.30
2017-12-27T12:37:23.262Z,2.10
2017-12-27T12:39:50.114Z,1.95
2017-12-27T12:42:16.913Z,2.10
2017-12-27T12:44:43.746Z,2.10
2017-12-27T12:47:10.609Z,1.90
2017-12-27T12:49:37.703Z,2.20
2017-12-27T12:52:04.847Z,2.00
2017-12-27T12:54:31.935Z,2.90
2017-12-27T12:56:58.758Z,2.43
2017-12-27T12:59:25.586Z,2.40
2017-12-27T13:01:52.725Z,2.20
2017-12-27T13:04:19.883Z,2.30
2017-12-27T13:06:46.683Z,2.20
2017-12-27T13:09:13.509Z,2.20
2017-12-27T13:11:40.346Z,2.28
2017-12-27T13:14:07.219Z,2.45
2017-12-27T13:16:34.037Z,2.50
2017-12-27T13:19:00.846Z,2.55
2017-12-27T13:21:28.784Z,2.70
2017-12-27T13:23:55.929Z,2.53
2017-12-27T13:26:22.765Z,2.70
2017-12-27T13:28:49.573Z,2.60
2017-12-27T13:31:16.438Z,2.60
2017-12-27T13:33:43.639Z,2.40
2017-12-27T13:36:10.445Z,2.60
2017-12-27T13:38:37.278Z,2.72
2017-12-27T13:41:04.092Z,2.53
2017-12-27T13:43:30.938Z,2.30
2017-12-27T13:45:58.164Z,2.60
2017-12-27T13:48:25.319Z,2.70
2017-12-27T13:50:52.119Z,2.80
2017-12-27T13:53:18.956Z,2.67
2017-12-27T13:55:45.996Z,2.72
2017-12-27T13:58:12.801Z,2.87
2017-12-27T14:00:39.679Z,2.75
2017-12-27T14:03:06.482Z,2.87
2017-12-27T14:05:33.282Z,2.60
2017-12-27T14:08:00.142Z,2.80
2017-12-27T14:10:26.977Z,3.10
2017-12-27T14:12:53.773Z,2.80
2017-12-27T14:15:20.895Z,2.58
2017-12-27T14:17:47.942Z,2.60
2017-12-27T14:20:14.787Z,2.70
2017-12-27T14:22:41.643Z,2.67
2017-12-27T14:25:08.471Z,2.60
2017-12-27T14:27:35.300Z,3.00
2017-12-27T14:30:02.361Z,2.80
2017-12-27T14:32:29.190Z,2.78
2017-12-27T14:34:55.990Z,2.80
2017-12-27T14:37:22.857Z,3.00
2017-12-27T14:39:49.938Z,3.05
2017-12-27T14:42:17.105Z,3.03
2017-12-27T14:44:44.187Z,2.80
2017-12-27T14:47:10.985Z,2.80
2017-12-27T14:49:37.797Z,3.07
2017-12-27T14:52:04.978Z,3.03
2017-12-27T14:54:31.785Z,3.10
2017-12-27T14:56:58.585Z,3.37
2017-12-27T14:59:25.448Z,3.50
2017-12-27T15:01:52.250Z,3.30
2017-12-27T15:04:19.053Z,3.67
2017-12-27T15:06:46.118Z,3.40
2017-12-27T15:09:12.951Z,3.60
2017-12-27T15:11:40.031Z,3.40
2017-12-27T15:14:06.849Z,3.33
2017-12-27T15:16:33.669Z,3.65
2017-12-27T15:19:00.482Z,3.90
2017-12-27T15:21:27.333Z,3.62
2017-12-27T15:23:54.451Z,3.95
2017-12-27T15:26:21.499Z,3.70
2017-12-27T15:28:48.318Z,3.83
2017-12-27T15:31:15.159Z,3.90
2017-12-27T15:33:42.017Z,4.40
2017-12-27T15:36:08.838Z,3.80
2017-12-27T15:38:35.667Z,3.92
2017-12-27T15:41:02.499Z,3.70
2017-12-27T15:43:29.355Z,3.80
2017-12-27T15:45:56.157Z,4.30
2017-12-27T15:48:22.994Z,4.10
2017-12-27T15:50:49.822Z,4.43
2017-12-27T15:53:16.900Z,4.20
2017-12-27T15:55:43.693Z,5.10
2017-12-27T15:58:10.571Z,5.65
2017-12-27T16:00:37.403Z,6.68
2017-12-27T16:03:04.237Z,5.00
2017-12-27T16:05:31.127Z,5.07
2017-12-27T16:07:58.166Z,5.60
2017-12-27T16:10:25.269Z,4.30
2017-12-27T16:12:52.468Z,4.55
2017-12-27T16:15:19.613Z,5.05
2017-12-27T16:17:46.506Z,4.43
2017-12-27T16:20:13.681Z,4.03
2017-12-27T16:22:40.513Z,4.55
2017-12-27T16:25:07.342Z,4.75
2017-12-27T16:27:34.195Z,4.40
2017-12-27T16:30:01.018Z,4.47
2017-12-27T16:32:27.862Z,4.70
2017-12-27T16:34:54.727Z,4.40
2017-12-27T16:37:21.789Z,4.40
2017-12-27T16:39:48.592Z,4.40
2017-12-27T16:42:15.463Z,4.80
2017-12-27T16:44:42.530Z,4.60
2017-12-27T16:47:09.571Z,4.20
2017-12-27T16:49:36.727Z,4.13
2017-12-27T16:52:03.539Z,4.70
2017-12-27T16:54:30.346Z,4.50
2017-12-27T16:56:57.169Z,4.70
2017-12-27T16:59:23.999Z,4.60
2017-12-27T17:01:50.842Z,5.03
2017-12-27T17:06:58.362Z,4.70
2017-12-27T17:09:25.171Z,4.95
2017-12-27T17:11:51.973Z,5.20
2017-12-27T17:14:19.077Z,5.30
2017-12-27T17:16:46.129Z,5.32
2017-12-27T17:19:12.975Z,4.90
2017-12-27T17:21:39.855Z,5.03
2017-12-27T17:24:06.662Z,5.12
2017-12-27T17:26:33.814Z,5.07
2017-12-27T17:29:00.656Z,25.62
2017-12-27T17:31:27.461Z,8.23
2017-12-27T17:33:54.499Z,6.93
2017-12-27T17:36:21.401Z,4.90
2017-12-27T17:38:48.202Z,4.80
2017-12-27T17:41:20.951Z,5.47
2017-12-27T17:43:52.174Z,5.15
2017-12-27T17:46:26.333Z,5.50
2017-12-27T17:48:54.630Z,5.45
2017-12-27T17:51:21.458Z,5.00
2017-12-27T17:53:48.267Z,5.37
2017-12-27T17:56:15.330Z,5.50
2017-12-27T17:58:42.170Z,5.53
2017-12-27T18:01:08.973Z,5.95
2017-12-27T18:03:36.117Z,5.78
2017-12-27T18:06:02.958Z,5.90
2017-12-27T18:08:30.006Z,5.60
2017-12-27T18:10:57.077Z,6.23
2017-12-27T18:13:23.882Z,6.07
2017-12-27T18:15:50.698Z,6.50
2017-12-27T18:18:17.570Z,6.37
2017-12-27T18:20:44.373Z,5.87
2017-12-27T18:23:11.209Z,6.30
2017-12-27T18:25:38.302Z,6.40
2017-12-27T18:28:05.362Z,6.25
2017-12-27T18:30:32.186Z,6.60
2017-12-27T18:32:59.278Z,6.10
2017-12-27T18:35:26.078Z,6.63
2017-12-27T18:37:52.895Z,6.45
2017-12-27T18:40:19.755Z,6.70
2017-12-27T18:42:46.785Z,6.45
2017-12-27T18:45:13.630Z,6.70
2017-12-27T18:47:40.498Z,6.62
2017-12-27T18:50:07.524Z,6.47
2017-12-27T18:52:34.595Z,6.80
2017-12-27T18:55:01.690Z,6.80
2017-12-27T18:57:28.716Z,7.23
2017-12-27T18:59:55.555Z,7.05
2017-12-27T19:02:22.609Z,7.27
2017-12-27T19:04:49.446Z,7.00
2017-12-27T19:07:16.479Z,7.03
2017-12-27T19:09:43.339Z,6.95
2017-12-27T19:12:10.408Z,6.93
2017-12-27T19:14:37.470Z,7.30
2017-12-27T19:17:04.293Z,7.68
2017-12-27T19:19:31.131Z,9.23
2017-12-27T19:21:57.975Z,7.70
2017-12-27T19:24:24.818Z,8.13
2017-12-27T19:26:51.651Z,7.70
2017-12-27T19:29:18.464Z,6.77
2017-12-27T19:31:45.290Z,7.50
2017-12-27T19:34:12.130Z,7.57
2017-12-27T19:36:39.235Z,8.13
2017-12-27T19:39:12.872Z,8.02
2017-12-27T19:41:43.423Z,7.47
2017-12-27T19:44:16.478Z,7.62
2017-12-27T19:46:46.339Z,7.50
2017-12-27T19:49:13.519Z,8.00
2017-12-27T19:51:40.405Z,7.35
2017-12-27T19:54:07.251Z,7.40
2017-12-27T19:56:34.349Z,7.30
2017-12-27T19:59:01.189Z,7.82
2017-12-27T20:01:28.315Z,7.72
2017-12-27T20:03:55.129Z,8.20
2017-12-27T20:06:21.998Z,7.62
2017-12-27T20:08:48.849Z,7.95
2017-12-27T20:11:15.924Z,9.00
2017-12-27T20:13:43.079Z,8.50
2017-12-27T20:16:10.231Z,8.27
2017-12-27T20:18:37.038Z,8.05
2017-12-27T20:21:03.915Z,8.10
2017-12-27T20:23:30.758Z,8.13
2017-12-27T20:25:57.638Z,8.50
2017-12-27T20:28:24.446Z,9.00
2017-12-27T20:30:51.249Z,8.30
2017-12-27T20:33:18.333Z,8.40
2017-12-27T20:35:45.203Z,7.70
2017-12-27T20:38:12.018Z,8.00
2017-12-27T20:40:39.178Z,8.30
2017-12-27T20:43:06.035Z,8.20
2017-12-27T20:45:32.853Z,8.15
2017-12-27T20:47:59.652Z,8.25
2017-12-27T20:50:26.537Z,7.80
2017-12-27T20:52:53.367Z,7.55
2017-12-27T20:55:20.542Z,8.30
2017-12-27T20:57:47.439Z,7.93
2017-12-27T21:00:14.493Z,8.80
2017-12-27T21:02:41.310Z,8.25
2017-12-27T21:05:08.166Z,7.97
2017-12-27T21:07:35.011Z,7.87
2017-12-27T21:10:01.843Z,7.50
2017-12-27T21:12:28.943Z,8.20
2017-12-27T21:14:55.770Z,7.80
2017-12-27T21:17:22.577Z,7.40
2017-12-27T21:19:49.459Z,7.93
2017-12-27T21:22:16.299Z,7.65
2017-12-27T21:24:43.142Z,7.90
2017-12-27T21:27:10.061Z,7.70
2017-12-27T21:29:36.895Z,7.80
2017-12-27T21:32:03.723Z,7.95
2017-12-27T21:34:30.583Z,7.90
2017-12-27T21:36:57.646Z,7.80
2017-12-27T21:39:24.743Z,8.00
2017-12-27T21:41:51.657Z,8.15
2017-12-27T21:44:18.474Z,7.62
2017-12-27T21:46:45.287Z,7.60
2017-12-27T21:49:12.146Z,7.70
2017-12-27T21:51:38.978Z,8.38
2017-12-27T21:54:05.776Z,7.60
2017-12-27T21:56:32.955Z,7.57
2017-12-27T21:58:59.993Z,7.15
2017-12-27T22:01:26.801Z,7.70
2017-12-27T22:03:53.691Z,7.40
2017-12-27T22:06:20.729Z,7.70
2017-12-27T22:08:47.543Z,7.60
2017-12-27T22:11:14.373Z,7.78
2017-12-27T22:13:41.185Z,8.10
2017-12-27T22:16:07.992Z,7.40
2017-12-27T22:18:34.851Z,7.32
2017-12-27T22:21:01.994Z,7.70
2017-12-27T22:23:29.150Z,7.83
2017-12-27T22:25:56.197Z,7.70
2017-12-27T22:28:23.039Z,7.50
2017-12-27T22:30:49.838Z,7.45
2017-12-27T22:33:16.699Z,8.00
2017-12-27T22:35:43.535Z,7.90
2017-12-27T22:38:10.349Z,8.10
2017-12-27T22:40:37.207Z,7.50
2017-12-27T22:43:04.046Z,8.00
2017-12-27T22:45:30.846Z,8.13
2017-12-27T22:47:57.991Z,8.30
2017-12-27T22:50:24.826Z,8.70
2017-12-27T22:52:51.625Z,8.30
2017-12-27T22:55:18.450Z,9.33
2017-12-27T22:57:45.286Z,8.20
2017-12-27T23:00:12.402Z,8.85
2017-12-27T23:02:39.558Z,8.87
2017-12-27T23:05:06.380Z,8.90
2017-12-27T23:07:33.185Z,8.85
2017-12-27T23:10:00.058Z,9.07
2017-12-27T23:12:26.906Z,9.60
2017-12-27T23:14:53.933Z,8.80
2017-12-27T23:17:21.127Z,9.80
2017-12-27T23:19:47.975Z,9.48
2017-12-27T23:22:15.029Z,9.23
2017-12-27T23:24:42.469Z,9.63
2017-12-27T23:27:09.314Z,9.30
2017-12-27T23:29:36.121Z,9.50
2017-12-27T23:32:04.032Z,9.57
2017-12-27T23:34:30.866Z,9.23
2017-12-27T23:36:57.665Z,9.70
2017-12-27T23:39:24.760Z,9.18
2017-12-27T23:41:51.577Z,9.40
2017-12-27T23:44:18.403Z,9.30
2017-12-27T23:46:45.498Z,9.50
2017-12-27T23:49:12.308Z,9.50
2017-12-27T23:51:39.909Z,9.50
2017-12-27T23:54:07.054Z,9.48
2017-12-27T23:56:33.857Z,9.00
2017-12-27T23:59:00.691Z,8.95
